createdAt,value
2018-09-28T00:00:57.219Z,94533.44
2018-09-28T00:03:24.882Z,94539.34
2018-09-28T00:05:52.798Z,94538.76
2018-09-28T00:08:20.389Z,94535.75
2018-09-28T00:10:47.894Z,94532.12
2018-09-28T00:13:15.530Z,94524.42
2018-09-28T00:15:43.067Z,94525.88
2018-09-28T00:18:10.609Z,94522.37
2018-09-28T00:20:38.210Z,94523.98
2018-09-28T00:23:06.231Z,94521.81
2018-09-28T00:25:33.906Z,94521.48
2018-09-28T00:28:01.418Z,94521.04
2018-09-28T00:30:28.967Z,94515.86
2018-09-28T00:32:56.505Z,94510.92
2018-09-28T00:35:24.063Z,94512.09
2018-09-28T00:37:51.711Z,94508.03
2018-09-28T00:40:19.234Z,94507.86
2018-09-28T00:42:46.766Z,94504.33
2018-09-28T00:45:14.322Z,94504.41
2018-09-28T00:47:41.847Z,94505.08
2018-09-28T00:50:09.571Z,94500.88
2018-09-28T00:52:37.124Z,94499.69
2018-09-28T00:55:04.691Z,94495.27
2018-09-28T00:57:32.228Z,94494.55
2018-09-28T00:59:59.781Z,94485.55
2018-09-28T01:02:28.015Z,94484.81
2018-09-28T01:04:55.529Z,94483.66
2018-09-28T01:07:23.046Z,94480.67
2018-09-28T01:09:50.616Z,94474.02
2018-09-28T01:12:18.122Z,94475.66
2018-09-28T01:14:45.688Z,94472.88
2018-09-28T01:17:13.526Z,94472.82
2018-09-28T01:19:41.124Z,94474.80
2018-09-28T01:22:08.692Z,94469.02
2018-09-28T01:24:36.270Z,94469.95
2018-09-28T01:27:03.818Z,94467.10
2018-09-28T01:29:31.455Z,94463.04
2018-09-28T01:31:58.981Z,94467.28
2018-09-28T01:34:26.739Z,94459.42
2018-09-28T01:36:54.327Z,94465.75
2018-09-28T01:39:21.903Z,94458.97
2018-09-28T01:41:49.453Z,94460.36
2018-09-28T01:44:16.980Z,94455.38
2018-09-28T01:46:44.861Z,94452.04
2018-09-28T01:49:12.394Z,94447.45
2018-09-28T01:51:39.930Z,94444.51
2018-09-28T01:54:07.520Z,94438.66
2018-09-28T01:56:35.647Z,94436.04
2018-09-28T01:59:03.235Z,94438.34
2018-09-28T02:01:30.750Z,94433.67
2018-09-28T02:03:58.659Z,94427.17
2018-09-28T02:06:26.211Z,94430.06
2018-09-28T02:08:53.830Z,94427.97
2018-09-28T02:11:21.438Z,94424.43
2018-09-28T02:13:48.974Z,94423.46
2018-09-28T02:16:16.545Z,94421.38
2018-09-28T02:18:45.083Z,94419.05
2018-09-28T02:21:12.686Z,94416.13
2018-09-28T02:23:40.303Z,94420.02
2018-09-28T02:26:07.866Z,94411.50
2018-09-28T02:28:35.425Z,94415.09
2018-09-28T02:31:02.963Z,94407.24
2018-09-28T02:33:30.532Z,94407.99
2018-09-28T02:35:58.061Z,94407.89
2018-09-28T02:38:25.603Z,94404.55
2018-09-28T02:40:53.165Z,94406.02
2018-09-28T02:43:20.733Z,94412.22
2018-09-28T02:45:48.306Z,94409.52
2018-09-28T02:48:15.847Z,94400.12
2018-09-28T02:50:43.399Z,94398.92
2018-09-28T02:53:15.455Z,94393.97
2018-09-28T02:55:43.012Z,94391.67
2018-09-28T02:58:10.559Z,94394.67
2018-09-28T03:00:38.143Z,94396.84
2018-09-28T03:03:05.719Z,94387.78
2018-09-28T03:05:33.238Z,94386.58
2018-09-28T03:08:01.057Z,94388.93
2018-09-28T03:10:28.663Z,94384.23
2018-09-28T03:12:56.235Z,94387.14
2018-09-28T03:15:23.774Z,94387.14
2018-09-28T03:17:51.346Z,94382.02
2018-09-28T03:20:18.918Z,94386.84
2018-09-28T03:22:46.439Z,94386.63
2018-09-28T03:25:14.048Z,94377.22
2018-09-28T03:27:41.619Z,94384.61
2018-09-28T03:30:09.499Z,94381.52
2018-09-28T03:32:37.050Z,94379.91
2018-09-28T03:35:04.622Z,94382.33
2018-09-28T03:37:32.182Z,94380.41
2018-09-28T03:39:59.714Z,94378.06
2018-09-28T03:42:27.270Z,94383.96
2018-09-28T03:44:54.774Z,94382.33
2018-09-28T03:47:22.426Z,94382.75
2018-09-28T03:49:50.070Z,94384.05
2018-09-28T03:52:17.660Z,94380.52
2018-09-28T03:54:45.509Z,94382.37
2018-09-28T03:57:13.087Z,94380.62
2018-09-28T03:59:40.618Z,94380.83
2018-09-28T04:02:08.179Z,94379.52
2018-09-28T04:04:35.870Z,94378.19
2018-09-28T04:07:03.402Z,94372.92
2018-09-28T04:09:30.978Z,94374.89
2018-09-28T04:11:58.515Z,94363.81
2018-09-28T04:14:26.088Z,94365.79
2018-09-28T04:16:53.624Z,94366.64
2018-09-28T04:19:21.175Z,94371.68
2018-09-28T04:21:56.238Z,94371.28
2018-09-28T04:24:23.795Z,94368.38
2018-09-28T04:26:51.339Z,94366.41
2018-09-28T04:29:18.875Z,94362.06
2018-09-28T04:31:46.447Z,94360.75
2018-09-28T04:34:14.010Z,94364.52
2018-09-28T04:36:41.566Z,94361.67
2018-09-28T04:39:09.570Z,94364.24
2018-09-28T04:41:37.100Z,94368.55
2018-09-28T04:44:04.634Z,94367.00
2018-09-28T04:46:32.553Z,94367.28
2018-09-28T04:49:00.398Z,94369.33
2018-09-28T04:51:28.169Z,94372.16
2018-09-28T04:53:55.751Z,94369.20
2018-09-28T04:56:23.327Z,94372.81
2018-09-28T04:58:51.253Z,94376.58
2018-09-28T05:01:19.570Z,94371.55
2018-09-28T05:03:47.136Z,94369.65
2018-09-28T05:06:14.960Z,94370.02
2018-09-28T05:08:42.483Z,94368.33
2018-09-28T05:11:10.114Z,94367.95
2018-09-28T05:13:37.687Z,94376.19
2018-09-28T05:16:05.270Z,94370.89
2018-09-28T05:18:32.951Z,94378.99
2018-09-28T05:21:00.498Z,94371.17
2018-09-28T05:23:28.037Z,94376.25
2018-09-28T05:25:55.602Z,94375.89
2018-09-28T05:28:23.138Z,94372.33
2018-09-28T05:30:53.967Z,94368.33
2018-09-28T05:33:18.457Z,94372.20
2018-09-28T05:35:46.059Z,94372.76
2018-09-28T05:38:13.615Z,94369.80
2018-09-28T05:40:41.174Z,94371.67
2018-09-28T05:43:09.054Z,94373.68
2018-09-28T05:45:36.833Z,94378.92
2018-09-28T05:48:04.422Z,94378.23
2018-09-28T05:50:31.992Z,94382.16
2018-09-28T05:52:59.807Z,94384.37
2018-09-28T05:55:27.379Z,94392.02
2018-09-28T05:58:00.638Z,94394.13
2018-09-28T06:00:33.859Z,94392.91
2018-09-28T06:03:08.958Z,94389.08
2018-09-28T06:05:38.738Z,94394.78
2018-09-28T06:08:06.514Z,94390.19
2018-09-28T06:10:34.158Z,94391.35
2018-09-28T06:13:01.788Z,94387.21
2018-09-28T06:15:29.410Z,94389.66
2018-09-28T06:17:57.080Z,94394.03
2018-09-28T06:20:26.227Z,94388.41
2018-09-28T06:22:54.058Z,94390.66
2018-09-28T06:25:21.652Z,94390.31
2018-09-28T06:27:49.566Z,94380.91
2018-09-28T06:30:17.131Z,94390.53
2018-09-28T06:32:44.678Z,94385.81
2018-09-28T06:35:12.266Z,94381.16
2018-09-28T06:37:39.774Z,94383.76
2018-09-28T06:40:07.363Z,94386.23
2018-09-28T06:42:35.146Z,94387.36
2018-09-28T06:45:02.817Z,94389.08
2018-09-28T06:47:30.346Z,94390.80
2018-09-28T06:49:58.539Z,94395.68
2018-09-28T06:52:26.535Z,94394.77
2018-09-28T06:54:54.075Z,94392.39
2018-09-28T06:57:21.629Z,94392.19
2018-09-28T06:59:49.247Z,94392.23
2018-09-28T07:02:16.718Z,94392.47
2018-09-28T07:04:44.673Z,94402.51
2018-09-28T07:07:12.218Z,94402.66
2018-09-28T07:09:39.756Z,94406.03
2018-09-28T07:12:07.410Z,94400.91
2018-09-28T07:14:34.922Z,94401.50
2018-09-28T07:17:02.512Z,94397.87
2018-09-28T07:19:30.046Z,94395.64
2018-09-28T07:21:57.598Z,94392.16
2018-09-28T07:24:26.104Z,94395.15
2018-09-28T07:26:53.674Z,94399.41
2018-09-28T07:29:21.219Z,94389.94
2018-09-28T07:31:48.765Z,94386.80
2018-09-28T07:34:16.287Z,94387.06
2018-09-28T07:36:44.028Z,94385.20
2018-09-28T07:39:11.946Z,94388.41
2018-09-28T07:41:39.573Z,94384.80
2018-09-28T07:44:07.426Z,94387.34
2018-09-28T07:46:34.998Z,94382.95
2018-09-28T07:49:02.621Z,94379.03
2018-09-28T07:51:30.399Z,94387.58
2018-09-28T07:53:58.049Z,94379.49
2018-09-28T07:56:25.706Z,94380.07
2018-09-28T07:58:53.266Z,94376.46
2018-09-28T08:01:20.826Z,94374.09
2018-09-28T08:03:48.458Z,94371.53
2018-09-28T08:06:16.007Z,94379.73
2018-09-28T08:08:43.577Z,94375.87
2018-09-28T08:11:11.132Z,94368.91
2018-09-28T08:13:38.670Z,94377.63
2018-09-28T08:16:06.414Z,94369.39
2018-09-28T08:18:34.014Z,94374.39
2018-09-28T08:21:01.532Z,94372.50
2018-09-28T08:23:29.190Z,94373.52
2018-09-28T08:25:56.645Z,94374.25
2018-09-28T08:28:24.202Z,94375.64
2018-09-28T08:30:51.740Z,94380.53
2018-09-28T08:33:19.854Z,94375.63
2018-09-28T08:35:47.411Z,94375.56
2018-09-28T08:38:14.966Z,94377.67
2018-09-28T08:40:42.494Z,94376.97
2018-09-28T08:43:10.058Z,94375.41
2018-09-28T08:45:37.593Z,94373.90
2018-09-28T08:48:05.631Z,94376.55
2018-09-28T08:50:33.194Z,94379.11
2018-09-28T08:53:00.827Z,94375.42
2018-09-28T08:55:28.375Z,94375.09
2018-09-28T08:57:55.906Z,94371.19
2018-09-28T09:00:23.483Z,94371.38
2018-09-28T09:02:51.042Z,94382.61
2018-09-28T09:05:18.629Z,94376.15
2018-09-28T09:07:46.362Z,94373.80
2018-09-28T09:10:13.939Z,94371.59
2018-09-28T09:12:41.756Z,94375.29
2018-09-28T09:15:09.334Z,94379.16
2018-09-28T09:17:36.915Z,94373.32
2018-09-28T09:20:04.507Z,94372.20
2018-09-28T09:22:32.039Z,94371.53
2018-09-28T09:24:59.658Z,94370.78
2018-09-28T09:27:27.284Z,94370.16
2018-09-28T09:29:54.822Z,94365.73
2018-09-28T09:32:22.346Z,94365.61
2018-09-28T09:34:49.903Z,94360.69
2018-09-28T09:37:17.466Z,94360.91
2018-09-28T09:39:45.042Z,94356.62
2018-09-28T09:42:13.219Z,94360.81
2018-09-28T09:44:41.151Z,94355.47
2018-09-28T09:47:08.758Z,94361.17
2018-09-28T09:49:36.363Z,94360.74
2018-09-28T09:52:04.073Z,94361.28
2018-09-28T09:54:31.627Z,94364.45
2018-09-28T09:56:59.165Z,94361.33
2018-09-28T09:59:26.707Z,94360.77
2018-09-28T10:02:00.038Z,94363.23
2018-09-28T10:04:27.575Z,94360.64
2018-09-28T10:06:55.111Z,94358.19
2018-09-28T10:09:22.822Z,94356.99
2018-09-28T10:11:50.362Z,94352.02
2018-09-28T10:14:17.881Z,94354.68
2018-09-28T10:16:45.454Z,94352.55
2018-09-28T10:19:13.010Z,94351.37
2018-09-28T10:21:40.593Z,94344.26
2018-09-28T10:24:08.116Z,94339.77
2018-09-28T10:26:35.659Z,94336.11
2018-09-28T10:29:03.359Z,94334.77
2018-09-28T10:31:30.890Z,94335.44
2018-09-28T10:33:58.483Z,94334.02
2018-09-28T10:36:26.058Z,94336.74
2018-09-28T10:38:53.618Z,94329.19
2018-09-28T10:41:21.181Z,94326.39
2018-09-28T10:43:48.717Z,94323.13
2018-09-28T10:46:16.294Z,94316.76
2018-09-28T10:48:43.859Z,94319.85
2018-09-28T10:51:11.411Z,94314.22
2018-09-28T10:53:39.038Z,94304.23
2018-09-28T10:56:06.593Z,94306.19
2018-09-28T10:58:34.177Z,94306.94
2018-09-28T11:01:01.839Z,94302.12
2018-09-28T11:03:29.430Z,94300.97
2018-09-28T11:05:57.290Z,94306.91
2018-09-28T11:08:24.895Z,94310.67
2018-09-28T11:10:52.381Z,94302.19
2018-09-28T11:13:20.139Z,94301.92
2018-09-28T11:15:47.896Z,94298.14
2018-09-28T11:18:15.518Z,94295.47
2018-09-28T11:20:43.082Z,94298.50
2018-09-28T11:23:10.638Z,94295.06
2018-09-28T11:25:38.219Z,94290.94
2018-09-28T11:28:06.502Z,94294.87
2018-09-28T11:30:34.074Z,94291.14
2018-09-28T11:33:01.675Z,94294.31
2018-09-28T11:35:29.245Z,94293.23
2018-09-28T11:37:56.795Z,94293.62
2018-09-28T11:40:24.643Z,94286.83
2018-09-28T11:42:52.305Z,94288.77
2018-09-28T11:45:19.881Z,94287.69
2018-09-28T11:47:47.430Z,94289.33
2018-09-28T11:50:15.001Z,94279.97
2018-09-28T11:52:42.582Z,94277.05
2018-09-28T11:55:10.119Z,94276.27
2018-09-28T11:57:37.738Z,94277.87
2018-09-28T12:00:05.384Z,94275.45
2018-09-28T12:02:32.908Z,94278.41
2018-09-28T12:05:00.593Z,94272.77
2018-09-28T12:07:28.129Z,94273.31
2018-09-28T12:09:55.762Z,94272.51
2018-09-28T12:12:23.414Z,94258.56
2018-09-28T12:14:50.941Z,94257.19
2018-09-28T12:17:18.511Z,94251.78
2018-09-28T12:19:46.077Z,94249.98
2018-09-28T12:22:13.645Z,94247.78
2018-09-28T12:24:41.340Z,94250.42
2018-09-28T12:27:08.883Z,94246.42
2018-09-28T12:29:36.382Z,94246.42
2018-09-28T12:32:03.999Z,94241.59
2018-09-28T12:34:31.624Z,94239.15
2018-09-28T12:36:59.186Z,94239.91
2018-09-28T12:39:26.789Z,94237.50
2018-09-28T12:41:54.346Z,94226.00
2018-09-28T12:44:22.066Z,94226.81
2018-09-28T12:46:49.559Z,94217.34
2018-09-28T12:49:17.126Z,94218.09
2018-09-28T12:51:44.694Z,94214.32
2018-09-28T12:54:12.257Z,94200.69
2018-09-28T12:56:39.877Z,94200.70
2018-09-28T12:59:07.462Z,94199.95
2018-09-28T13:01:34.978Z,94196.92
2018-09-28T13:04:02.612Z,94198.55
2018-09-28T13:06:30.221Z,94202.53
2018-09-28T13:08:57.772Z,94203.35
2018-09-28T13:11:25.334Z,94197.44
2018-09-28T13:13:53.229Z,94200.59
2018-09-28T13:16:20.791Z,94202.22
2018-09-28T13:18:48.431Z,94192.94
2018-09-28T13:21:15.942Z,94198.00
2018-09-28T13:23:43.795Z,94195.10
2018-09-28T13:26:11.355Z,94194.27
2018-09-28T13:28:38.926Z,94189.73
2018-09-28T13:31:06.584Z,94182.45
2018-09-28T13:33:34.186Z,94179.81
2018-09-28T13:36:01.927Z,94184.71
2018-09-28T13:38:29.553Z,94176.42
2018-09-28T13:40:57.010Z,94170.16
2018-09-28T13:43:24.582Z,94172.97
2018-09-28T13:45:52.152Z,94174.11
2018-09-28T13:48:19.790Z,94173.25
2018-09-28T13:50:47.582Z,94170.44
2018-09-28T13:53:15.098Z,94171.05
2018-09-28T13:55:42.697Z,94172.11
2018-09-28T13:58:10.312Z,94168.72
2018-09-28T14:00:37.880Z,94172.41
2018-09-28T14:03:05.831Z,94171.40
2018-09-28T14:05:33.379Z,94169.53
2018-09-28T14:08:00.899Z,94167.69
2018-09-28T14:10:28.477Z,94170.84
2018-09-28T14:12:56.036Z,94165.34
2018-09-28T14:15:23.582Z,94164.72
2018-09-28T14:17:51.718Z,94163.50
2018-09-28T14:20:19.297Z,94166.94
2018-09-28T14:22:46.918Z,94156.64
2018-09-28T14:25:14.470Z,94164.09
2018-09-28T14:27:42.069Z,94161.52
2018-09-28T14:30:09.643Z,94162.52
2018-09-28T14:32:38.131Z,94165.85
2018-09-28T14:35:05.780Z,94158.05
2018-09-28T14:37:33.421Z,94153.97
2018-09-28T14:40:00.975Z,94153.19
2018-09-28T14:42:28.562Z,94155.09
2018-09-28T14:44:56.458Z,94155.66
2018-09-28T14:47:24.023Z,94157.44
2018-09-28T14:49:51.653Z,94155.58
2018-09-28T14:52:19.357Z,94152.91
2018-09-28T14:54:46.884Z,94155.72
2018-09-28T14:57:14.802Z,94158.30
2018-09-28T14:59:42.353Z,94156.11
2018-09-28T15:02:09.944Z,94164.56
2018-09-28T15:04:37.814Z,94160.20
2018-09-28T15:07:05.607Z,94162.87
2018-09-28T15:09:33.112Z,94164.88
2018-09-28T15:12:00.702Z,94167.34
2018-09-28T15:14:28.321Z,94156.73
2018-09-28T15:16:55.822Z,94160.20
2018-09-28T15:19:23.398Z,94164.12
2018-09-28T15:21:50.982Z,94160.82
2018-09-28T15:24:18.543Z,94169.22
2018-09-28T15:26:46.113Z,94176.23
2018-09-28T15:29:13.755Z,94172.36
2018-09-28T15:31:41.603Z,94173.34
2018-09-28T15:34:09.144Z,94182.19
2018-09-28T15:36:36.762Z,94181.80
2018-09-28T15:39:06.470Z,94189.53
2018-09-28T15:41:33.998Z,94193.94
2018-09-28T15:44:01.595Z,94195.37
2018-09-28T15:46:29.186Z,94190.29
2018-09-28T15:48:56.726Z,94189.86
2018-09-28T15:51:24.309Z,94195.61
2018-09-28T15:53:51.898Z,94197.03
2018-09-28T15:56:19.825Z,94202.44
2018-09-28T15:58:47.370Z,94213.48
2018-09-28T16:01:14.930Z,94210.34
2018-09-28T16:03:42.509Z,94223.70
2018-09-28T16:06:10.046Z,94224.94
2018-09-28T16:08:37.600Z,94226.17
2018-09-28T16:11:05.330Z,94220.62
2018-09-28T16:13:32.884Z,94220.72
2018-09-28T16:16:00.418Z,94236.80
2018-09-28T16:18:28.034Z,94232.05
2018-09-28T16:20:55.678Z,94241.06
2018-09-28T16:23:23.233Z,94245.08
2018-09-28T16:25:50.810Z,94244.97
2018-09-28T16:28:18.373Z,94239.31
2018-09-28T16:30:45.944Z,94244.39
2018-09-28T16:33:13.526Z,94256.06
2018-09-28T16:35:41.219Z,94245.96
2018-09-28T16:38:08.763Z,94254.19
2018-09-28T16:40:36.405Z,94247.14
2018-09-28T16:43:03.963Z,94257.67
2018-09-28T16:45:31.543Z,94258.66
2018-09-28T16:47:59.115Z,94257.05
2018-09-28T16:50:26.673Z,94261.06
2018-09-28T16:52:54.309Z,94263.88
2018-09-28T16:55:21.974Z,94273.92
2018-09-28T16:57:49.615Z,94280.27
2018-09-28T17:00:17.182Z,94287.91
2018-09-28T17:02:45.094Z,94287.41
2018-09-28T17:05:12.654Z,94285.36
2018-09-28T17:07:40.216Z,94291.25
2018-09-28T17:10:07.831Z,94296.70
2018-09-28T17:12:35.385Z,94301.49
2018-09-28T17:15:02.990Z,94306.56
2018-09-28T17:17:30.555Z,94298.52
2018-09-28T17:19:58.098Z,94306.77
2018-09-28T17:22:25.728Z,94304.23
2018-09-28T17:24:53.259Z,94315.41
2018-09-28T17:27:20.973Z,94311.09
2018-09-28T17:29:48.563Z,94303.91
2018-09-28T17:32:16.138Z,94301.27
2018-09-28T17:34:43.709Z,94309.75
2018-09-28T17:37:11.293Z,94313.27
2018-09-28T17:39:38.878Z,94317.80
2018-09-28T17:42:06.496Z,94318.35
2018-09-28T17:44:34.062Z,94317.98
2018-09-28T17:47:01.621Z,94325.52
2018-09-28T17:49:29.207Z,94326.98
2018-09-28T17:51:56.774Z,94335.23
2018-09-28T17:54:24.690Z,94338.72
2018-09-28T17:56:52.285Z,94331.94
2018-09-28T17:59:19.862Z,94335.61
2018-09-28T18:01:47.431Z,94349.45
2018-09-28T18:04:14.981Z,94349.25
2018-09-28T18:06:42.546Z,94349.25
2018-09-28T18:09:11.113Z,94347.04
2018-09-28T18:11:38.666Z,94352.16
2018-09-28T18:14:06.442Z,94348.50
2018-09-28T18:16:33.939Z,94367.08
2018-09-28T18:19:01.505Z,94361.30
2018-09-28T18:21:29.087Z,94368.05
2018-09-28T18:23:56.755Z,94368.12
2018-09-28T18:26:24.309Z,94373.03
2018-09-28T18:28:51.946Z,94365.88
2018-09-28T18:31:19.562Z,94376.05
2018-09-28T18:33:47.089Z,94370.16
2018-09-28T18:36:14.839Z,94375.27
2018-09-28T18:38:42.466Z,94386.56
2018-09-28T18:41:10.049Z,94399.48
2018-09-28T18:43:37.587Z,94395.03
2018-09-28T18:46:05.165Z,94403.20
2018-09-28T18:48:32.862Z,94402.19
2018-09-28T18:51:01.002Z,94403.86
2018-09-28T18:53:28.618Z,94407.71
2018-09-28T18:55:56.310Z,94411.80
2018-09-28T18:58:24.479Z,94411.50
2018-09-28T19:00:52.116Z,94413.11
2018-09-28T19:03:19.775Z,94416.50
2018-09-28T19:05:48.217Z,94410.49
2018-09-28T19:08:15.752Z,94421.98
2018-09-28T19:10:43.432Z,94425.55
2018-09-28T19:13:11.317Z,94422.00
2018-09-28T19:15:38.870Z,94418.93
2018-09-28T19:18:06.450Z,94426.61
2018-09-28T19:20:34.353Z,94439.50
2018-09-28T19:23:01.933Z,94448.38
2018-09-28T19:25:29.503Z,94446.63
2018-09-28T19:27:57.261Z,94449.03
2018-09-28T19:30:24.805Z,94454.61
2018-09-28T19:32:52.411Z,94457.30
2018-09-28T19:35:20.077Z,94456.83
2018-09-28T19:37:47.675Z,94456.39
2018-09-28T19:40:15.250Z,94468.77
2018-09-28T19:42:42.863Z,94468.61
2018-09-28T19:45:10.450Z,94463.84
2018-09-28T19:47:38.089Z,94472.85
2018-09-28T19:50:06.061Z,94474.86
2018-09-28T19:52:33.599Z,94470.69
2018-09-28T19:55:01.210Z,94486.53
2018-09-28T19:57:28.839Z,94482.34
2018-09-28T19:59:56.391Z,94486.53
2018-09-28T20:02:23.958Z,94486.45
2018-09-28T20:04:51.534Z,94496.67
2018-09-28T20:07:19.080Z,94501.94
2018-09-28T20:09:46.706Z,94496.62
2018-09-28T20:12:14.243Z,94505.84
2018-09-28T20:14:41.781Z,94510.42
2018-09-28T20:17:09.351Z,94517.56
2018-09-28T20:19:36.899Z,94510.55
2018-09-28T20:22:07.043Z,94515.45
2018-09-28T20:24:34.664Z,94510.83
2018-09-28T20:27:02.232Z,94513.59
2018-09-28T20:29:29.825Z,94513.66
2018-09-28T20:31:57.437Z,94514.87
2018-09-28T20:34:25.326Z,94512.59
2018-09-28T20:36:52.909Z,94515.55
2018-09-28T20:39:20.430Z,94522.70
2018-09-28T20:41:48.062Z,94525.34
2018-09-28T20:44:15.663Z,94526.55
2018-09-28T20:46:43.222Z,94534.98
2018-09-28T20:49:10.833Z,94534.22
2018-09-28T20:51:38.463Z,94534.93
2018-09-28T20:54:06.115Z,94542.39
2018-09-28T20:56:33.636Z,94543.08
2018-09-28T20:59:01.989Z,94547.70
2018-09-28T21:01:29.790Z,94548.19
2018-09-28T21:03:57.358Z,94543.70
2018-09-28T21:06:24.918Z,94558.98
2018-09-28T21:08:52.488Z,94551.80
2018-09-28T21:11:20.079Z,94549.73
2018-09-28T21:13:47.644Z,94550.41
2018-09-28T21:16:15.226Z,94557.11
2018-09-28T21:18:42.766Z,94548.03
2018-09-28T21:21:10.346Z,94554.38
2018-09-28T21:23:37.985Z,94563.27
2018-09-28T21:26:05.623Z,94560.88
2018-09-28T21:28:33.191Z,94560.13
2018-09-28T21:31:01.002Z,94566.64
2018-09-28T21:33:28.572Z,94563.12
2018-09-28T21:35:56.136Z,94567.00
2018-09-28T21:38:23.826Z,94562.77
2018-09-28T21:40:51.385Z,94568.31
2018-09-28T21:43:18.965Z,94567.64
2018-09-28T21:45:47.187Z,94570.34
2018-09-28T21:48:14.740Z,94572.40
2018-09-28T21:50:42.291Z,94570.77
2018-09-28T21:53:09.840Z,94559.56
2018-09-28T21:55:37.403Z,94553.98
2018-09-28T21:58:05.645Z,94556.61
2018-09-28T22:00:36.634Z,94561.36
2018-09-28T22:03:04.592Z,94565.98
2018-09-28T22:05:32.157Z,94564.77
2018-09-28T22:07:59.838Z,94558.83
2018-09-28T22:10:27.383Z,94554.14
2018-09-28T22:12:54.962Z,94561.04
2018-09-28T22:15:22.534Z,94548.89
2018-09-28T22:17:50.116Z,94558.09
2018-09-28T22:20:17.670Z,94554.88
2018-09-28T22:22:45.227Z,94554.73
2018-09-28T22:25:12.811Z,94568.31
2018-09-28T22:27:40.359Z,94557.16
2018-09-28T22:30:08.196Z,94563.34
2018-09-28T22:32:35.694Z,94555.10
2018-09-28T22:35:03.254Z,94561.04
2018-09-28T22:37:30.835Z,94565.63
2018-09-28T22:39:58.374Z,94573.92
2018-09-28T22:42:25.930Z,94565.04
2018-09-28T22:44:53.486Z,94565.98
2018-09-28T22:47:21.074Z,94546.23
2018-09-28T22:49:48.627Z,94559.25
2018-09-28T22:52:16.158Z,94566.93
2018-09-28T22:54:43.740Z,94569.66
2018-09-28T22:57:11.302Z,94573.57
2018-09-28T22:59:38.874Z,94577.44
2018-09-28T23:02:06.457Z,94574.75
2018-09-28T23:04:34.001Z,94577.27
2018-09-28T23:07:01.589Z,94570.38
2018-09-28T23:09:29.115Z,94583.63
2018-09-28T23:11:56.651Z,94577.38
2018-09-28T23:14:24.238Z,94576.19
2018-09-28T23:16:51.801Z,94581.98
2018-09-28T23:19:19.330Z,94573.73
2018-09-28T23:21:47.116Z,94578.37
2018-09-28T23:24:14.627Z,94582.25
2018-09-28T23:26:42.201Z,94579.70
2018-09-28T23:29:09.756Z,94584.02
2018-09-28T23:31:37.273Z,94587.75
2018-09-28T23:34:04.831Z,94597.64
2018-09-28T23:36:32.346Z,94583.31
2018-09-28T23:38:59.890Z,94593.11
2018-09-28T23:41:27.442Z,94599.41
2018-09-28T23:43:54.981Z,94599.13
2018-09-28T23:46:22.565Z,94596.06
2018-09-28T23:48:50.087Z,94593.03
2018-09-28T23:51:17.630Z,94602.18
2018-09-28T23:53:45.194Z,94606.82
2018-09-28T23:56:12.716Z,94616.09
2018-09-28T23:58:40.257Z,94623.60
